Time;durP1;ratioP1;P1;durP2;ratioP2;P2;SDS_P1;SDS_P2;PMS_P1;PMS_P2;Temp;Humidity;BMP_temperature;BMP_pressure;BME280_temperature;BME280_humidity;BME280_pressure;Samples;Min_cycle;Max_cycle;Signal;HPM_P1;HPM_P2
2021/03/10 00:01:29;;;;;;;;;;;29.00;77.20;;;;;;5064481;28;20093;-43
2021/03/10 00:03:55;;;;;;;;;;;29.00;77.50;;;;;;5064448;28;19905;-48
2021/03/10 00:06:24;;;;;;;;;;;28.90;77.70;;;;;;5064771;28;19916;-49
2021/03/10 00:08:52;;;;;;;;;;;28.90;77.80;;;;;;5064295;28;19920;-44
2021/03/10 00:11:18;;;;;;;;;;;29.00;77.60;;;;;;5063559;28;19905;-47
2021/03/10 00:13:44;;;;;;;;;;;28.90;78.20;;;;;;5064305;28;19957;-44
2021/03/10 00:16:11;;;;;;;;;;;28.90;78.50;;;;;;5064412;28;20179;-48
2021/03/10 00:18:37;;;;;;;;;;;28.80;77.90;;;;;;5064127;28;19904;-44
2021/03/10 00:21:03;;;;;;;;;;;28.80;77.90;;;;;;5064456;28;19908;-49
2021/03/10 00:23:31;;;;;;;;;;;28.80;77.50;;;;;;5064070;28;19905;-42
2021/03/10 00:25:57;;;;;;;;;;;28.80;77.50;;;;;;5064313;28;19905;-41
2021/03/10 00:28:23;;;;;;;;;;;28.80;77.30;;;;;;5064224;28;19980;-46
2021/03/10 00:30:49;;;;;;;;;;;28.80;77.60;;;;;;5064001;28;19904;-53
2021/03/10 00:33:16;;;;;;;;;;;28.90;77.50;;;;;;5064064;28;19912;-47
2021/03/10 00:35:43;;;;;;;;;;;28.80;77.10;;;;;;5064243;28;19900;-41
2021/03/10 00:38:09;;;;;;;;;;;28.80;77.30;;;;;;5063808;28;19908;-47
2021/03/10 00:40:35;;;;;;;;;;;28.80;77.40;;;;;;5063920;28;20185;-43
2021/03/10 00:43:01;;;;;;;;;;;28.80;77.40;;;;;;5064018;28;19909;-46
2021/03/10 00:45:28;;;;;;;;;;;28.80;77.50;;;;;;5063877;28;19912;-51
2021/03/10 00:47:57;;;;;;;;;;;28.80;77.70;;;;;;5064498;28;19901;-52
2021/03/10 00:50:23;;;;;;;;;;;28.70;77.50;;;;;;5063845;28;20105;-46
2021/03/10 00:52:49;;;;;;;;;;;28.70;78.50;;;;;;5063582;28;19950;-45
2021/03/10 00:55:18;;;;;;;;;;;28.70;78.10;;;;;;5063800;28;19916;-51
2021/03/10 00:57:45;;;;;;;;;;;28.70;78.40;;;;;;5064282;28;19908;-49
2021/03/10 01:00:12;;;;;;;;;;;28.60;78.30;;;;;;5062652;28;19909;-48
2021/03/10 01:02:38;;;;;;;;;;;28.60;78.00;;;;;;5064374;28;19901;-47
2021/03/10 01:05:04;;;;;;;;;;;28.60;78.10;;;;;;5063712;28;19909;-49
2021/03/10 01:07:31;;;;;;;;;;;28.50;78.20;;;;;;5064126;28;19943;-47
2021/03/10 01:09:57;;;;;;;;;;;28.50;78.50;;;;;;5063762;28;19916;-50
2021/03/10 01:12:23;;;;;;;;;;;28.50;78.40;;;;;;5064217;28;19908;-51
2021/03/10 01:14:49;;;;;;;;;;;28.40;78.40;;;;;;5063692;28;20205;-53
2021/03/10 01:17:16;;;;;;;;;;;28.40;78.40;;;;;;5063814;28;19978;-46
2021/03/10 01:19:42;;;;;;;;;;;28.40;78.60;;;;;;5063496;28;19913;-42
2021/03/10 01:22:08;;;;;;;;;;;28.30;79.00;;;;;;5064034;28;19936;-47
2021/03/10 01:24:34;;;;;;;;;;;28.40;79.20;;;;;;5063541;28;20109;-44
2021/03/10 01:27:00;;;;;;;;;;;28.30;78.90;;;;;;5063590;28;19923;-43
2021/03/10 01:29:26;;;;;;;;;;;28.30;78.80;;;;;;5063670;28;19909;-51
2021/03/10 01:31:55;;;;;;;;;;;28.30;79.00;;;;;;5065603;28;20124;-45
2021/03/10 01:34:21;;;;;;;;;;;28.30;79.10;;;;;;5067482;28;19913;-49
2021/03/10 01:36:48;;;;;;;;;;;28.30;79.00;;;;;;5067479;28;19971;-50
2021/03/10 01:39:14;;;;;;;;;;;28.30;79.00;;;;;;5066127;28;19954;-45
2021/03/10 01:41:40;;;;;;;;;;;28.20;78.80;;;;;;5067484;28;20177;-49
2021/03/10 01:44:06;;;;;;;;;;;28.20;79.00;;;;;;5067295;28;19905;-49
2021/03/10 01:46:39;;;;;;;;;;;28.20;79.10;;;;;;5065454;28;19909;-44
2021/03/10 01:49:09;;;;;;;;;;;28.20;79.30;;;;;;5065970;28;19972;-46
2021/03/10 01:51:39;;;;;;;;;;;28.20;79.40;;;;;;5067091;28;19905;-44
2021/03/10 01:54:06;;;;;;;;;;;28.10;79.20;;;;;;5066912;28;19919;-45
2021/03/10 01:56:38;;;;;;;;;;;28.10;79.30;;;;;;5067134;28;20097;-45
2021/03/10 01:59:04;;;;;;;;;;;28.10;79.30;;;;;;5066791;28;19900;-43
2021/03/10 02:01:30;;;;;;;;;;;28.10;79.20;;;;;;5067164;28;19915;-43
2021/03/10 02:03:57;;;;;;;;;;;28.10;79.30;;;;;;5066968;28;19904;-43
2021/03/10 02:06:31;;;;;;;;;;;28.10;79.10;;;;;;5065779;28;19938;-53
2021/03/10 02:09:05;;;;;;;;;;;28.10;79.20;;;;;;5066744;28;19904;-50
2021/03/10 02:11:55;;;;;;;;;;;28.10;79.10;;;;;;5066459;28;19909;-50
2021/03/10 02:14:40;;;;;;;;;;;28.10;79.20;;;;;;5066336;28;19905;-48
2021/03/10 02:17:07;;;;;;;;;;;28.10;79.10;;;;;;5066990;28;19916;-49
2021/03/10 02:19:56;;;;;;;;;;;28.10;79.00;;;;;;5066133;28;20071;-48
2021/03/10 02:22:22;;;;;;;;;;;28.10;78.90;;;;;;5066705;28;19947;-42
2021/03/10 02:24:54;;;;;;;;;;;28.10;78.80;;;;;;5066462;28;19907;-50
2021/03/10 02:27:38;;;;;;;;;;;28.00;78.90;;;;;;5066508;28;19915;-44
2021/03/10 02:30:12;;;;;;;;;;;28.00;79.10;;;;;;5065952;28;19901;-50
2021/03/10 02:32:44;;;;;;;;;;;28.00;79.00;;;;;;5066388;28;19987;-47
2021/03/10 02:35:14;;;;;;;;;;;28.00;78.80;;;;;;5064898;28;19908;-49
2021/03/10 02:37:44;;;;;;;;;;;28.00;78.90;;;;;;5065183;28;19916;-48
2021/03/10 02:40:13;;;;;;;;;;;28.00;79.00;;;;;;5065787;28;19954;-51
2021/03/10 02:42:40;;;;;;;;;;;28.00;79.00;;;;;;5065089;28;19916;-53
2021/03/10 02:45:10;;;;;;;;;;;28.00;79.00;;;;;;5064536;28;19907;-49
2021/03/10 02:47:37;;;;;;;;;;;28.00;79.60;;;;;;5066312;28;19916;-41
2021/03/10 02:50:09;;;;;;;;;;;28.00;79.10;;;;;;5065926;28;19900;-47
2021/03/10 02:52:36;;;;;;;;;;;27.90;79.00;;;;;;5065830;28;19999;-48
2021/03/10 02:55:03;;;;;;;;;;;27.90;79.20;;;;;;5065758;28;19900;-46
2021/03/10 02:57:30;;;;;;;;;;;27.90;79.00;;;;;;5064690;28;19908;-48
2021/03/10 02:59:56;;;;;;;;;;;27.90;79.10;;;;;;5064289;28;19968;-48
2021/03/10 03:02:23;;;;;;;;;;;27.90;79.00;;;;;;5066094;28;19940;-43
2021/03/10 03:04:49;;;;;;;;;;;27.90;79.20;;;;;;5065661;28;19908;-52
2021/03/10 03:07:16;;;;;;;;;;;27.90;78.90;;;;;;5066043;28;19983;-50
2021/03/10 03:09:42;;;;;;;;;;;27.90;79.00;;;;;;5065250;28;19900;-50
2021/03/10 03:12:09;;;;;;;;;;;27.90;78.90;;;;;;5065756;28;19909;-50
2021/03/10 03:14:38;;;;;;;;;;;27.90;78.90;;;;;;5065107;28;19904;-46
2021/03/10 03:17:05;;;;;;;;;;;27.90;79.10;;;;;;5065341;28;19931;-44
2021/03/10 03:19:31;;;;;;;;;;;27.80;78.90;;;;;;5065508;28;19901;-48
2021/03/10 03:21:58;;;;;;;;;;;27.90;79.10;;;;;;5065151;28;19931;-55
2021/03/10 03:24:25;;;;;;;;;;;27.80;78.80;;;;;;5064797;28;19901;-42
2021/03/10 03:26:51;;;;;;;;;;;27.80;78.80;;;;;;5065407;28;19909;-42
2021/03/10 03:29:18;;;;;;;;;;;27.80;78.70;;;;;;5064752;28;19901;-51
2021/03/10 03:31:45;;;;;;;;;;;27.80;78.80;;;;;;5065017;28;19908;-40
2021/03/10 03:34:12;;;;;;;;;;;27.80;78.70;;;;;;5065063;28;19905;-47
2021/03/10 03:36:38;;;;;;;;;;;27.80;78.50;;;;;;5064874;28;19908;-42
2021/03/10 03:39:05;;;;;;;;;;;27.80;78.70;;;;;;5064624;28;19939;-44
2021/03/10 03:41:32;;;;;;;;;;;27.90;78.70;;;;;;5065006;28;19924;-43
2021/03/10 03:43:59;;;;;;;;;;;27.90;78.60;;;;;;5064928;28;20193;-47
2021/03/10 03:46:26;;;;;;;;;;;27.90;78.30;;;;;;5064921;28;19980;-52
2021/03/10 03:49:02;;;;;;;;;;;27.90;78.30;;;;;;5064839;28;19963;-54
2021/03/10 03:51:29;;;;;;;;;;;27.90;78.10;;;;;;5064772;28;19931;-42
2021/03/10 03:53:56;;;;;;;;;;;27.90;77.80;;;;;;5064250;28;19900;-46
2021/03/10 03:56:23;;;;;;;;;;;27.90;77.90;;;;;;5064663;28;19976;-46
2021/03/10 03:58:49;;;;;;;;;;;27.90;77.50;;;;;;5064659;28;20199;-45
2021/03/10 04:01:15;;;;;;;;;;;27.90;77.50;;;;;;5064576;28;19931;-50
2021/03/10 04:03:44;;;;;;;;;;;27.80;77.50;;;;;;5064719;28;19923;-44
2021/03/10 04:06:10;;;;;;;;;;;27.80;77.40;;;;;;5064646;28;19950;-49
2021/03/10 04:08:36;;;;;;;;;;;27.80;77.50;;;;;;5064458;28;19908;-44
2021/03/10 04:11:02;;;;;;;;;;;27.80;77.50;;;;;;5064428;28;19909;-45
2021/03/10 04:13:28;;;;;;;;;;;27.80;77.40;;;;;;5064318;28;19905;-43
2021/03/10 04:15:54;;;;;;;;;;;27.80;77.40;;;;;;5064272;28;20208;-45
2021/03/10 04:18:21;;;;;;;;;;;27.80;77.40;;;;;;5064359;28;20129;-45
2021/03/10 04:20:47;;;;;;;;;;;27.70;77.30;;;;;;5064293;28;19900;-45
2021/03/10 04:23:13;;;;;;;;;;;27.70;77.30;;;;;;5064116;28;19901;-50
2021/03/10 04:25:40;;;;;;;;;;;27.70;77.40;;;;;;5064386;28;19908;-50
2021/03/10 04:28:06;;;;;;;;;;;27.60;77.40;;;;;;5064171;28;19943;-52
2021/03/10 04:30:32;;;;;;;;;;;27.60;77.30;;;;;;5064135;28;19901;-50
2021/03/10 04:32:59;;;;;;;;;;;27.60;77.10;;;;;;5063982;28;19912;-47
2021/03/10 04:35:25;;;;;;;;;;;27.60;77.00;;;;;;5063060;28;19900;-49
2021/03/10 04:37:51;;;;;;;;;;;27.60;77.00;;;;;;5064568;28;19909;-39
2021/03/10 04:40:18;;;;;;;;;;;27.60;77.00;;;;;;5063960;28;19922;-48
2021/03/10 04:42:44;;;;;;;;;;;27.60;76.80;;;;;;5064044;28;19915;-43
2021/03/10 04:45:12;;;;;;;;;;;27.60;76.60;;;;;;5064039;28;19901;-45
2021/03/10 04:47:42;;;;;;;;;;;27.50;77.00;;;;;;5064323;28;19909;-43
2021/03/10 04:50:09;;;;;;;;;;;27.50;77.00;;;;;;5064064;28;19900;-46
2021/03/10 04:52:35;;;;;;;;;;;27.50;76.80;;;;;;5063933;28;19927;-44
2021/03/10 04:55:02;;;;;;;;;;;27.50;76.60;;;;;;5064083;28;19943;-41
2021/03/10 04:57:29;;;;;;;;;;;27.50;76.90;;;;;;5064451;28;19913;-42
2021/03/10 04:59:55;;;;;;;;;;;27.40;77.00;;;;;;5063869;28;19909;-49
2021/03/10 05:02:21;;;;;;;;;;;27.50;77.30;;;;;;5064130;28;19909;-45
2021/03/10 05:04:47;;;;;;;;;;;27.40;77.50;;;;;;5063920;28;19901;-46
2021/03/10 05:07:13;;;;;;;;;;;27.40;77.80;;;;;;5066955;28;19932;-41
2021/03/10 05:09:39;;;;;;;;;;;27.40;78.00;;;;;;5067708;28;19908;-41
2021/03/10 05:12:06;;;;;;;;;;;27.40;78.00;;;;;;5068200;28;20203;-42
2021/03/10 05:14:32;;;;;;;;;;;27.40;78.30;;;;;;5067613;28;19911;-42
2021/03/10 05:16:58;;;;;;;;;;;27.30;78.40;;;;;;5067878;28;19975;-43
2021/03/10 05:19:24;;;;;;;;;;;27.40;78.20;;;;;;5067799;28;19901;-44
2021/03/10 05:21:51;;;;;;;;;;;27.40;78.00;;;;;;5067837;28;20113;-46
2021/03/10 05:24:17;;;;;;;;;;;27.40;77.80;;;;;;5067459;28;19963;-50
2021/03/10 05:26:43;;;;;;;;;;;27.40;77.70;;;;;;5067589;28;20223;-45
2021/03/10 05:29:10;;;;;;;;;;;27.40;78.20;;;;;;5067605;28;19901;-43
2021/03/10 05:31:36;;;;;;;;;;;27.40;78.20;;;;;;5067672;28;19908;-45
2021/03/10 05:34:02;;;;;;;;;;;27.40;78.30;;;;;;5067950;28;19951;-50
2021/03/10 05:36:28;;;;;;;;;;;27.30;78.40;;;;;;5067228;28;19904;-42
2021/03/10 05:38:54;;;;;;;;;;;27.40;78.60;;;;;;5067652;28;19915;-49
2021/03/10 05:41:21;;;;;;;;;;;27.40;78.10;;;;;;5067055;28;19901;-45
2021/03/10 05:43:47;;;;;;;;;;;27.40;78.00;;;;;;5067117;28;19915;-48
2021/03/10 05:46:14;;;;;;;;;;;27.40;78.20;;;;;;5067072;28;19900;-45
2021/03/10 05:48:40;;;;;;;;;;;27.40;78.20;;;;;;5067207;28;19931;-43
2021/03/10 05:51:06;;;;;;;;;;;27.40;78.60;;;;;;5067029;28;19901;-46
2021/03/10 05:53:38;;;;;;;;;;;27.40;77.80;;;;;;5066965;28;19916;-42
2021/03/10 05:56:04;;;;;;;;;;;27.40;77.90;;;;;;5066680;28;19907;-41
2021/03/10 05:58:31;;;;;;;;;;;27.40;77.90;;;;;;5067086;28;19908;-44
2021/03/10 06:00:57;;;;;;;;;;;27.40;77.80;;;;;;5066958;28;19904;-43
2021/03/10 06:03:23;;;;;;;;;;;27.40;77.60;;;;;;5066905;28;19915;-48
2021/03/10 06:06:03;;;;;;;;;;;27.40;77.50;;;;;;5066944;28;19943;-47
2021/03/10 06:08:30;;;;;;;;;;;27.40;77.70;;;;;;5066877;28;19908;-53
2021/03/10 06:10:56;;;;;;;;;;;27.40;77.70;;;;;;5066742;28;20265;-48
2021/03/10 06:13:29;;;;;;;;;;;27.40;77.80;;;;;;5066888;28;19915;-46
2021/03/10 06:15:56;;;;;;;;;;;27.40;77.50;;;;;;5066531;28;19911;-42
2021/03/10 06:18:30;;;;;;;;;;;27.40;77.70;;;;;;5066432;28;19904;-51
2021/03/10 06:21:13;;;;;;;;;;;27.40;77.40;;;;;;5066566;28;19904;-48
2021/03/10 06:23:52;;;;;;;;;;;27.40;77.40;;;;;;5066909;28;19904;-48
2021/03/10 06:26:22;;;;;;;;;;;27.50;77.50;;;;;;5066798;28;19905;-46
2021/03/10 06:28:49;;;;;;;;;;;27.40;77.20;;;;;;5066401;28;19971;-45
2021/03/10 06:31:16;;;;;;;;;;;27.40;76.90;;;;;;5066387;28;20098;-43
2021/03/10 06:33:42;;;;;;;;;;;27.50;76.90;;;;;;5066468;28;19931;-42
2021/03/10 06:36:09;;;;;;;;;;;27.40;77.70;;;;;;5066512;28;19911;-42
2021/03/10 06:38:35;;;;;;;;;;;27.40;77.10;;;;;;5066445;28;19939;-44
2021/03/10 06:41:01;;;;;;;;;;;27.40;77.00;;;;;;5066220;28;19936;-45
2021/03/10 06:43:37;;;;;;;;;;;27.40;77.60;;;;;;5066214;28;20063;-46
2021/03/10 06:46:17;;;;;;;;;;;27.40;77.20;;;;;;5066106;28;19947;-45
2021/03/10 06:48:53;;;;;;;;;;;27.40;77.00;;;;;;5066143;28;20120;-43
2021/03/10 06:51:23;;;;;;;;;;;27.40;76.40;;;;;;5066020;28;20248;-52
2021/03/10 06:53:50;;;;;;;;;;;27.40;76.40;;;;;;5065882;28;19916;-42
2021/03/10 06:56:17;;;;;;;;;;;27.40;76.30;;;;;;5065957;28;19901;-41
2021/03/10 06:58:53;;;;;;;;;;;27.40;75.80;;;;;;5066066;28;19908;-45
2021/03/10 07:01:19;;;;;;;;;;;27.40;75.40;;;;;;5065735;28;19901;-40
2021/03/10 07:03:46;;;;;;;;;;;27.40;75.10;;;;;;5066042;28;19955;-40
2021/03/10 07:06:13;;;;;;;;;;;27.40;75.00;;;;;;5065722;28;19901;-49
2021/03/10 07:08:40;;;;;;;;;;;27.40;74.80;;;;;;5065758;28;19915;-41
2021/03/10 07:11:07;;;;;;;;;;;27.40;75.40;;;;;;5065469;28;19901;-43
2021/03/10 07:13:33;;;;;;;;;;;27.40;74.70;;;;;;5065320;28;19984;-44
2021/03/10 07:16:00;;;;;;;;;;;27.40;74.40;;;;;;5065341;28;20092;-44
2021/03/10 07:18:27;;;;;;;;;;;27.40;75.30;;;;;;5065746;28;19909;-43
2021/03/10 07:20:55;;;;;;;;;;;27.40;74.90;;;;;;5065463;28;19901;-47
2021/03/10 07:23:23;;;;;;;;;;;27.40;75.30;;;;;;5065436;28;19970;-47
2021/03/10 07:25:49;;;;;;;;;;;27.30;74.80;;;;;;5065379;28;20189;-40
2021/03/10 07:28:17;;;;;;;;;;;27.30;74.90;;;;;;5065072;28;20126;-44
2021/03/10 07:30:44;;;;;;;;;;;27.30;74.70;;;;;;5064864;28;20180;-43
2021/03/10 07:33:12;;;;;;;;;;;27.30;75.00;;;;;;5065278;28;20109;-50
2021/03/10 07:35:57;;;;;;;;;;;27.30;74.40;;;;;;5065169;28;20132;-57
2021/03/10 07:38:24;;;;;;;;;;;27.30;74.50;;;;;;5065291;28;19917;-50
2021/03/10 07:40:54;;;;;;;;;;;27.30;74.30;;;;;;5064954;28;19901;-50
2021/03/10 07:43:21;;;;;;;;;;;27.30;73.80;;;;;;5064853;28;19908;-50
2021/03/10 07:45:47;;;;;;;;;;;27.30;73.70;;;;;;5064827;28;19968;-52
2021/03/10 07:48:13;;;;;;;;;;;27.30;73.20;;;;;;5065018;28;19940;-52
2021/03/10 07:50:41;;;;;;;;;;;27.30;73.60;;;;;;5064783;28;19900;-58
2021/03/10 07:53:07;;;;;;;;;;;27.30;73.70;;;;;;5064669;28;19916;-51
2021/03/10 07:55:44;;;;;;;;;;;27.30;73.30;;;;;;5064673;28;19967;-51
2021/03/10 07:58:11;;;;;;;;;;;27.30;73.50;;;;;;5064351;28;20011;-51
2021/03/10 08:00:38;;;;;;;;;;;27.30;73.50;;;;;;5064419;28;19936;-52
2021/03/10 08:03:05;;;;;;;;;;;27.30;73.20;;;;;;5064799;28;20094;-54
2021/03/10 08:05:32;;;;;;;;;;;27.30;73.20;;;;;;5064540;28;19900;-52
2021/03/10 08:08:09;;;;;;;;;;;27.30;73.30;;;;;;5064651;28;19977;-52
2021/03/10 08:10:35;;;;;;;;;;;27.30;73.50;;;;;;5064700;28;19942;-59
2021/03/10 08:13:22;;;;;;;;;;;27.30;73.90;;;;;;5064549;28;19921;-51
2021/03/10 08:15:49;;;;;;;;;;;27.20;73.80;;;;;;5064221;28;19901;-42
2021/03/10 08:18:21;;;;;;;;;;;27.20;74.10;;;;;;5064497;28;20257;-44
2021/03/10 08:20:47;;;;;;;;;;;27.20;74.20;;;;;;5064457;28;19972;-46
2021/03/10 08:23:13;;;;;;;;;;;27.20;74.30;;;;;;5064394;28;19909;-43
2021/03/10 08:25:40;;;;;;;;;;;27.20;74.60;;;;;;5064416;28;19938;-50
2021/03/10 08:28:12;;;;;;;;;;;27.10;74.50;;;;;;5064574;28;19915;-42
2021/03/10 08:30:39;;;;;;;;;;;27.20;74.60;;;;;;5063979;28;20207;-52
2021/03/10 08:33:06;;;;;;;;;;;27.20;74.80;;;;;;5064035;28;19913;-43
2021/03/10 08:35:32;;;;;;;;;;;27.20;74.80;;;;;;5064200;28;19946;-47
2021/03/10 08:38:00;;;;;;;;;;;27.20;74.90;;;;;;5064057;28;19908;-44
2021/03/10 08:40:28;;;;;;;;;;;27.20;75.10;;;;;;5064132;28;19900;-43
2021/03/10 08:42:55;;;;;;;;;;;27.20;75.20;;;;;;5064201;28;19943;-44
2021/03/10 08:45:24;;;;;;;;;;;27.20;75.20;;;;;;5063979;28;20097;-43
2021/03/10 08:48:00;;;;;;;;;;;27.20;75.40;;;;;;5064328;28;19907;-45
2021/03/10 08:50:27;;;;;;;;;;;27.20;75.50;;;;;;5064348;28;19901;-43
2021/03/10 08:52:53;;;;;;;;;;;27.20;75.80;;;;;;5063638;28;19916;-44
2021/03/10 08:55:26;;;;;;;;;;;27.20;75.80;;;;;;5064035;28;19904;-45
2021/03/10 08:57:55;;;;;;;;;;;27.20;75.80;;;;;;5063869;28;19991;-43
2021/03/10 09:00:23;;;;;;;;;;;27.20;75.90;;;;;;5064109;28;20117;-44
2021/03/10 09:02:50;;;;;;;;;;;27.20;75.90;;;;;;5064228;28;20089;-43
2021/03/10 09:05:29;;;;;;;;;;;27.20;75.90;;;;;;5063917;28;19982;-49
2021/03/10 09:07:57;;;;;;;;;;;27.20;76.20;;;;;;5064021;28;19911;-48
2021/03/10 09:10:23;;;;;;;;;;;27.20;76.30;;;;;;5063739;28;19928;-44
2021/03/10 09:12:50;;;;;;;;;;;27.20;76.40;;;;;;5063651;28;19905;-47
2021/03/10 09:15:18;;;;;;;;;;;27.10;76.60;;;;;;5063775;28;19939;-44
2021/03/10 09:17:45;;;;;;;;;;;27.10;76.80;;;;;;5063762;28;19975;-47
2021/03/10 09:20:31;;;;;;;;;;;27.10;77.80;;;;;;5063716;28;19946;-47
2021/03/10 09:22:57;;;;;;;;;;;27.10;77.50;;;;;;5063517;28;19911;-47
2021/03/10 09:25:25;;;;;;;;;;;27.10;77.70;;;;;;5063555;28;19909;-45
2021/03/10 09:28:04;;;;;;;;;;;27.10;77.90;;;;;;5063731;28;19923;-41
2021/03/10 09:30:31;;;;;;;;;;;27.00;78.30;;;;;;5063609;28;19976;-42
2021/03/10 09:32:58;;;;;;;;;;;27.00;78.50;;;;;;5063483;28;19909;-42
2021/03/10 09:35:28;;;;;;;;;;;26.90;78.50;;;;;;5063633;28;19912;-42
2021/03/10 09:37:56;;;;;;;;;;;26.90;78.90;;;;;;5063601;28;19905;-49
2021/03/10 09:40:23;;;;;;;;;;;26.90;78.60;;;;;;5063620;28;20113;-45
2021/03/10 09:43:00;;;;;;;;;;;26.90;79.20;;;;;;5063574;28;19900;-44
2021/03/10 09:45:27;;;;;;;;;;;27.00;78.60;;;;;;5063369;28;19912;-43
2021/03/10 09:47:54;;;;;;;;;;;27.00;78.60;;;;;;5063558;28;20173;-43
2021/03/10 09:50:45;;;;;;;;;;;26.90;78.50;;;;;;5063519;28;19975;-43
2021/03/10 09:53:13;;;;;;;;;;;27.00;78.20;;;;;;5063211;28;19955;-41
2021/03/10 09:55:39;;;;;;;;;;;27.10;77.90;;;;;;5067296;28;19908;-46
2021/03/10 09:58:06;;;;;;;;;;;27.10;77.90;;;;;;5066904;28;20093;-40
2021/03/10 10:00:33;;;;;;;;;;;27.10;77.90;;;;;;5066822;28;19901;-44
2021/03/10 10:02:59;;;;;;;;;;;27.10;77.90;;;;;;5067092;28;19940;-48
2021/03/10 10:05:29;;;;;;;;;;;27.10;78.40;;;;;;5066705;28;19900;-42
2021/03/10 10:07:56;;;;;;;;;;;27.00;78.70;;;;;;5066826;28;19908;-45
2021/03/10 10:10:23;;;;;;;;;;;27.00;78.80;;;;;;5066692;28;19900;-42
2021/03/10 10:12:50;;;;;;;;;;;27.00;79.10;;;;;;5066587;28;20148;-42
2021/03/10 10:15:26;;;;;;;;;;;27.00;79.60;;;;;;5066827;28;19907;-48
2021/03/10 10:17:54;;;;;;;;;;;27.00;79.80;;;;;;5066692;28;19921;-45
2021/03/10 10:20:21;;;;;;;;;;;26.90;80.20;;;;;;5066866;28;19909;-45
2021/03/10 10:22:47;;;;;;;;;;;26.90;80.50;;;;;;5066592;28;19900;-47
2021/03/10 10:25:16;;;;;;;;;;;26.90;81.00;;;;;;5066496;28;19928;-48
2021/03/10 10:27:46;;;;;;;;;;;26.80;80.90;;;;;;5066394;28;19904;-48
2021/03/10 10:30:14;;;;;;;;;;;26.80;82.30;;;;;;5066479;28;19901;-43
2021/03/10 10:32:43;;;;;;;;;;;26.60;82.40;;;;;;5066102;28;19928;-47
2021/03/10 10:35:11;;;;;;;;;;;26.60;83.60;;;;;;5066445;28;19908;-43
2021/03/10 10:37:37;;;;;;;;;;;26.50;83.90;;;;;;5066344;28;19907;-40
2021/03/10 10:40:04;;;;;;;;;;;26.50;84.50;;;;;;5066140;28;20193;-40
2021/03/10 10:42:30;;;;;;;;;;;26.40;84.80;;;;;;5066390;28;20197;-41
2021/03/10 10:44:56;;;;;;;;;;;26.40;85.00;;;;;;5066698;28;20101;-47
2021/03/10 10:47:23;;;;;;;;;;;26.30;85.10;;;;;;5066149;28;20132;-51
2021/03/10 10:49:49;;;;;;;;;;;26.30;85.10;;;;;;5066533;28;19947;-50
2021/03/10 10:52:15;;;;;;;;;;;26.30;85.70;;;;;;5066042;28;19958;-44
2021/03/10 10:54:41;;;;;;;;;;;26.30;86.10;;;;;;5066306;28;19912;-43
2021/03/10 10:57:07;;;;;;;;;;;26.30;86.20;;;;;;5065769;28;19971;-43
2021/03/10 10:59:33;;;;;;;;;;;26.30;85.70;;;;;;5066323;28;19909;-44
2021/03/10 11:02:00;;;;;;;;;;;26.30;85.80;;;;;;5065942;28;19908;-51
2021/03/10 11:04:26;;;;;;;;;;;26.30;85.80;;;;;;5064990;28;20124;-48
2021/03/10 11:06:53;;;;;;;;;;;26.30;86.00;;;;;;5065732;28;19932;-46
2021/03/10 11:09:19;;;;;;;;;;;26.40;86.00;;;;;;5065995;28;19936;-43
2021/03/10 11:11:45;;;;;;;;;;;26.40;85.30;;;;;;5065583;28;19901;-41
2021/03/10 11:14:11;;;;;;;;;;;26.40;85.40;;;;;;5065882;28;19943;-40
2021/03/10 11:16:37;;;;;;;;;;;26.40;85.50;;;;;;5065591;28;19907;-48
2021/03/10 11:19:03;;;;;;;;;;;26.50;85.50;;;;;;5065688;28;19909;-41
2021/03/10 11:21:29;;;;;;;;;;;26.40;85.70;;;;;;5065519;28;19900;-48
2021/03/10 11:23:56;;;;;;;;;;;26.50;85.50;;;;;;5065706;28;19908;-45
2021/03/10 11:26:22;;;;;;;;;;;26.50;85.50;;;;;;5065342;28;19942;-43
2021/03/10 11:28:48;;;;;;;;;;;26.40;85.40;;;;;;5065712;28;19915;-42
2021/03/10 11:31:14;;;;;;;;;;;26.40;85.40;;;;;;5065412;28;19908;-41
2021/03/10 11:33:40;;;;;;;;;;;26.40;85.40;;;;;;5065350;28;19920;-40
2021/03/10 11:36:07;;;;;;;;;;;26.50;85.50;;;;;;5065475;28;19900;-42
2021/03/10 11:38:34;;;;;;;;;;;26.50;85.30;;;;;;5065377;28;19954;-44
2021/03/10 11:41:01;;;;;;;;;;;26.60;85.10;;;;;;5064964;28;19958;-42
2021/03/10 11:43:27;;;;;;;;;;;26.50;85.20;;;;;;5065264;28;19936;-41
2021/03/10 11:45:53;;;;;;;;;;;26.60;85.50;;;;;;5064890;28;19907;-44
2021/03/10 11:48:20;;;;;;;;;;;26.60;85.40;;;;;;5065107;28;19908;-49
2021/03/10 11:50:46;;;;;;;;;;;26.70;85.40;;;;;;5064523;28;19922;-43
2021/03/10 11:53:12;;;;;;;;;;;26.70;85.30;;;;;;5064538;28;19923;-43
2021/03/10 11:55:38;;;;;;;;;;;26.70;85.70;;;;;;5064875;28;19900;-44
2021/03/10 11:58:05;;;;;;;;;;;26.70;86.00;;;;;;5064572;28;19943;-42
2021/03/10 12:00:31;;;;;;;;;;;26.60;85.50;;;;;;5064880;28;19900;-43
2021/03/10 12:02:57;;;;;;;;;;;26.60;85.60;;;;;;5064622;28;19909;-41
2021/03/10 12:05:23;;;;;;;;;;;26.60;85.40;;;;;;5064239;28;19939;-42
2021/03/10 12:07:51;;;;;;;;;;;26.60;85.40;;;;;;5064383;28;20189;-41
2021/03/10 12:10:17;;;;;;;;;;;26.60;85.30;;;;;;5064306;28;19904;-47
2021/03/10 12:12:46;;;;;;;;;;;26.60;85.50;;;;;;5064179;28;19928;-48
2021/03/10 12:15:13;;;;;;;;;;;26.60;85.40;;;;;;5064365;28;20110;-45
2021/03/10 12:17:39;;;;;;;;;;;26.60;85.30;;;;;;5064301;28;19946;-44
2021/03/10 12:20:06;;;;;;;;;;;26.50;84.90;;;;;;5063970;28;19912;-45
2021/03/10 12:22:32;;;;;;;;;;;26.60;85.20;;;;;;5064054;28;19907;-44
2021/03/10 12:24:59;;;;;;;;;;;26.60;86.30;;;;;;5064087;28;19928;-44
2021/03/10 12:27:25;;;;;;;;;;;26.60;86.90;;;;;;5063903;28;19946;-51
2021/03/10 12:29:56;;;;;;;;;;;26.60;87.00;;;;;;5064542;28;19955;-45
2021/03/10 12:32:23;;;;;;;;;;;26.60;86.70;;;;;;5064357;28;20243;-51
2021/03/10 12:34:53;;;;;;;;;;;26.60;86.10;;;;;;5064230;28;20098;-42
2021/03/10 12:37:19;;;;;;;;;;;26.60;87.00;;;;;;5064072;28;20190;-42
2021/03/10 12:39:46;;;;;;;;;;;26.70;87.00;;;;;;5064699;28;19912;-46
2021/03/10 12:42:12;;;;;;;;;;;26.60;86.90;;;;;;5063985;28;19905;-44
2021/03/10 12:44:39;;;;;;;;;;;26.60;86.80;;;;;;5064261;28;20098;-47
2021/03/10 12:47:05;;;;;;;;;;;26.70;87.10;;;;;;5064067;28;20189;-48
2021/03/10 12:49:31;;;;;;;;;;;26.60;86.60;;;;;;5064261;28;19954;-44
2021/03/10 12:51:58;;;;;;;;;;;26.60;86.90;;;;;;5063950;28;20104;-51
2021/03/10 12:54:24;;;;;;;;;;;26.60;86.70;;;;;;5064341;28;19919;-48
2021/03/10 12:56:54;;;;;;;;;;;26.60;87.90;;;;;;5063900;28;20250;-44
2021/03/10 12:59:21;;;;;;;;;;;26.60;88.60;;;;;;5063717;28;19947;-45
2021/03/10 13:01:47;;;;;;;;;;;26.60;88.70;;;;;;5063686;28;19944;-47
2021/03/10 13:04:14;;;;;;;;;;;26.60;88.60;;;;;;5064155;28;19915;-50
2021/03/10 13:06:40;;;;;;;;;;;26.60;88.00;;;;;;5063821;28;19931;-44
2021/03/10 13:09:06;;;;;;;;;;;26.70;87.70;;;;;;5064185;28;20104;-47
2021/03/10 13:11:32;;;;;;;;;;;26.70;87.80;;;;;;5063792;28;19901;-44
2021/03/10 13:13:59;;;;;;;;;;;26.70;87.40;;;;;;5064013;28;19912;-43
2021/03/10 13:16:25;;;;;;;;;;;26.70;88.30;;;;;;5063868;28;19904;-43
2021/03/10 13:18:51;;;;;;;;;;;26.80;87.10;;;;;;5063980;28;19909;-42
2021/03/10 13:21:18;;;;;;;;;;;26.80;88.20;;;;;;5063591;28;19900;-53
2021/03/10 13:23:45;;;;;;;;;;;26.80;87.20;;;;;;5063968;28;19916;-48
2021/03/10 13:26:11;;;;;;;;;;;26.80;87.00;;;;;;5063792;28;19905;-46
2021/03/10 13:28:37;;;;;;;;;;;26.80;87.30;;;;;;5067041;28;19909;-47
2021/03/10 13:31:04;;;;;;;;;;;26.80;87.30;;;;;;5067409;28;19905;-47
2021/03/10 13:33:30;;;;;;;;;;;26.80;87.10;;;;;;5067404;28;19919;-47
2021/03/10 13:35:56;;;;;;;;;;;26.80;87.50;;;;;;5067328;28;19968;-51
2021/03/10 13:38:22;;;;;;;;;;;26.80;86.80;;;;;;5067488;28;19909;-44
2021/03/10 13:40:49;;;;;;;;;;;26.90;86.40;;;;;;5067449;28;19900;-42
2021/03/10 13:43:17;;;;;;;;;;;26.90;86.60;;;;;;5067078;28;19909;-47
2021/03/10 13:45:43;;;;;;;;;;;26.90;86.00;;;;;;5067274;28;19900;-42
2021/03/10 13:48:09;;;;;;;;;;;26.90;85.50;;;;;;5067497;28;19983;-45
2021/03/10 13:50:36;;;;;;;;;;;26.90;85.80;;;;;;5067010;28;19900;-42
2021/03/10 13:53:03;;;;;;;;;;;27.00;84.50;;;;;;5066701;28;19917;-49
2021/03/10 13:55:29;;;;;;;;;;;27.00;83.80;;;;;;5067056;28;19968;-42
2021/03/10 13:57:55;;;;;;;;;;;26.90;83.30;;;;;;5065652;28;20007;-48
2021/03/10 14:00:22;;;;;;;;;;;27.00;83.80;;;;;;5066542;28;19908;-44
2021/03/10 14:02:48;;;;;;;;;;;27.00;82.70;;;;;;5066984;28;20128;-44
2021/03/10 14:05:14;;;;;;;;;;;26.90;82.90;;;;;;5066573;28;19938;-47
2021/03/10 14:07:40;;;;;;;;;;;26.90;82.90;;;;;;5066617;28;19900;-40
2021/03/10 14:10:07;;;;;;;;;;;27.00;82.00;;;;;;5066528;28;20098;-39
2021/03/10 14:12:33;;;;;;;;;;;27.00;81.40;;;;;;5066514;28;19932;-38
2021/03/10 14:14:59;;;;;;;;;;;27.00;81.30;;;;;;5066585;28;19936;-46
2021/03/10 14:17:25;;;;;;;;;;;27.10;80.90;;;;;;5066675;28;20096;-39
2021/03/10 14:19:51;;;;;;;;;;;27.10;79.60;;;;;;5067096;28;19912;-43